Time;durP1;ratioP1;P1;durP2;ratioP2;P2;SDS_P1;SDS_P2;PMS_P1;PMS_P2;Temp;Humidity;BMP_temperature;BMP_pressure;BME280_temperature;BME280_humidity;BME280_pressure;Samples;Min_cycle;Max_cycle;Signal;HPM_P1;HPM_P2
2023/06/07 00:01:36;;;;;;;0.50;0.50;;;;;;;19.44;57.99;96644.25;10494562;28;20020;-32
2023/06/07 00:06:39;;;;;;;0.50;0.50;;;;;;;19.47;57.88;96650.16;10488566;28;20649;-32
2023/06/07 00:11:40;;;;;;;0.45;0.45;;;;;;;19.46;57.93;96655.22;10495476;28;20040;-32
2023/06/07 00:16:40;;;;;;;0.60;0.60;;;;;;;19.45;57.86;96651.00;10492602;28;20025;-32
2023/06/07 00:21:40;;;;;;;0.60;0.60;;;;;;;19.43;57.81;96657.78;10495976;28;20044;-34
2023/06/07 00:26:41;;;;;;;0.50;0.50;;;;;;;19.49;59.49;96657.78;10494405;28;20522;-32
2023/06/07 00:31:42;;;;;;;0.57;0.50;;;;;;;19.68;58.41;96659.34;10495396;28;20569;-31
2023/06/07 00:36:43;;;;;;;0.45;0.45;;;;;;;19.75;57.80;96650.84;10487834;28;20029;-33
2023/06/07 00:41:43;;;;;;;0.43;0.40;;;;;;;19.60;58.03;96653.47;10494701;28;20405;-33
2023/06/07 00:46:47;;;;;;;0.30;0.30;;;;;;;19.54;58.10;96650.97;10486774;28;20344;-33
2023/06/07 00:51:48;;;;;;;0.68;0.68;;;;;;;19.48;58.07;96643.38;10476822;28;20055;-33
2023/06/07 00:56:49;;;;;;;0.65;0.60;;;;;;;19.50;58.06;96649.31;10486567;28;20035;-33
2023/06/07 01:01:55;;;;;;;0.40;0.40;;;;;;;19.46;57.90;96647.63;10492945;28;20040;-32
2023/06/07 01:06:56;;;;;;;0.45;0.45;;;;;;;19.45;57.77;96656.09;10494454;28;20127;-33
2023/06/07 01:11:57;;;;;;;0.50;0.50;;;;;;;19.46;57.70;96661.16;10485928;28;20036;-33
2023/06/07 01:16:58;;;;;;;0.50;0.50;;;;;;;19.32;57.63;96649.38;10474304;28;20035;-33
2023/06/07 01:22:10;;;;;;;0.40;0.40;;;;;;;19.26;57.84;96649.41;10485255;28;20044;-33
2023/06/07 01:27:11;;;;;;;0.45;0.43;;;;;;;19.52;57.67;96652.66;10473953;28;20406;-32
2023/06/07 01:32:12;;;;;;;0.40;0.40;;;;;;;19.62;56.56;96644.16;10489508;28;20033;-32
2023/06/07 01:37:12;;;;;;;0.45;0.40;;;;;;;19.41;57.43;96649.34;10473650;28;20032;-34
2023/06/07 01:42:15;;;;;;;0.65;0.65;;;;;;;19.30;57.25;96651.94;10489278;28;20033;-33
2023/06/07 01:47:16;;;;;;;0.57;0.50;;;;;;;19.23;57.28;96649.41;10468326;28;20471;-32
2023/06/07 01:52:16;;;;;;;1.05;0.95;;;;;;;19.19;57.20;96647.75;10470340;28;20119;-33
2023/06/07 01:57:42;;;;;;;1.30;0.87;;;;;;;19.18;57.24;96654.47;10489142;28;20028;-33
2023/06/07 02:02:58;;;;;;;1.05;0.95;;;;;;;19.10;57.36;96643.50;10465647;28;20039;-33
2023/06/07 02:08:02;;;;;;;1.17;0.90;;;;;;;19.13;57.30;96650.25;10468609;28;20043;-33
2023/06/07 02:13:07;;;;;;;0.75;0.75;;;;;;;19.12;57.24;96640.97;10491280;28;20021;-32
2023/06/07 02:18:08;;;;;;;0.80;0.80;;;;;;;19.15;56.85;96639.25;10490018;28;20390;-33
2023/06/07 02:23:08;;;;;;;1.15;0.75;;;;;;;19.45;56.56;96645.94;10487941;28;20116;-32
2023/06/07 02:28:09;;;;;;;1.10;1.00;;;;;;;19.56;56.02;96650.09;10486624;28;20082;-33
2023/06/07 02:33:13;;;;;;;1.10;0.95;;;;;;;19.40;56.88;96652.72;10465468;28;20020;-33
2023/06/07 02:38:14;;;;;;;1.42;1.10;;;;;;;19.28;56.85;96647.69;10490628;28;20526;-32
2023/06/07 02:43:14;;;;;;;1.13;1.00;;;;;;;19.26;56.64;96654.50;10472041;28;20033;-33
2023/06/07 02:48:16;;;;;;;1.20;0.90;;;;;;;19.24;56.88;96656.19;10476769;28;20036;-32
2023/06/07 02:53:17;;;;;;;1.42;1.00;;;;;;;19.18;56.84;96656.19;10476599;28;20310;-34
2023/06/07 02:58:18;;;;;;;1.13;1.00;;;;;;;19.15;56.95;96651.09;10474665;28;20021;-33
2023/06/07 03:03:18;;;;;;;1.13;1.02;;;;;;;19.09;56.88;96639.28;10479989;28;20054;-33
2023/06/07 03:08:26;;;;;;;1.23;1.10;;;;;;;19.14;56.91;96646.88;10478559;28;20056;-33
2023/06/07 03:13:27;;;;;;;1.38;1.25;;;;;;;19.14;56.80;96654.47;10493401;28;20040;-33
2023/06/07 03:18:28;;;;;;;2.15;1.20;;;;;;;19.36;56.86;96656.13;10494890;28;20405;-32
2023/06/07 03:23:33;;;;;;;1.80;1.40;;;;;;;19.57;56.07;96656.88;10470595;28;20195;-32
2023/06/07 03:28:34;;;;;;;1.42;1.30;;;;;;;19.45;56.54;96653.53;10477260;28;20078;-33
2023/06/07 03:33:37;;;;;;;1.20;1.10;;;;;;;19.30;56.24;96651.06;10475945;28;20491;-33
2023/06/07 03:38:40;;;;;;;1.40;1.30;;;;;;;19.22;56.48;96648.56;10493368;28;20111;-31
2023/06/07 03:43:41;;;;;;;1.40;1.30;;;;;;;19.16;56.29;96652.81;10478405;28;20028;-33
2023/06/07 03:48:42;;;;;;;1.38;1.27;;;;;;;19.14;56.73;96655.34;10476749;28;20045;-32
2023/06/07 03:53:43;;;;;;;1.75;1.60;;;;;;;19.13;56.58;96653.66;10477078;28;20037;-32
2023/06/07 03:58:47;;;;;;;1.48;1.23;;;;;;;19.13;56.65;96642.66;10476176;28;20029;-32
2023/06/07 04:03:52;;;;;;;2.55;1.50;;;;;;;19.12;56.65;96640.97;10477655;28;20052;-33
2023/06/07 04:08:52;;;;;;;2.08;1.88;;;;;;;19.11;56.65;96640.13;10492709;28;20123;-32
2023/06/07 04:13:53;;;;;;;1.70;1.35;;;;;;;19.25;56.51;96642.66;10475570;28;20060;-33
2023/06/07 04:18:55;;;;;;;1.60;1.50;;;;;;;19.48;55.90;96638.28;10476863;28;20453;-33
2023/06/07 04:23:57;;;;;;;1.60;1.50;;;;;;;19.44;55.64;96640.00;10470937;28;20036;-33
2023/06/07 04:28:59;;;;;;;1.50;1.40;;;;;;;19.31;56.22;96642.59;10476496;28;20407;-33
2023/06/07 04:34:05;;;;;;;1.47;1.30;;;;;;;19.25;56.12;96642.66;10475345;28;20399;-32
2023/06/07 04:39:09;;;;;;;1.70;1.50;;;;;;;19.21;56.29;96646.91;10470712;28;20070;-33
2023/06/07 04:44:11;;;;;;;2.78;1.42;;;;;;;19.16;56.47;96642.66;10475743;28;20447;-32
2023/06/07 04:49:17;;;;;;;2.17;1.85;;;;;;;19.12;56.27;96646.91;10473030;28;20398;-33
2023/06/07 04:54:17;;;;;;;2.00;1.80;;;;;;;19.10;56.31;96643.50;10475762;28;20032;-33
2023/06/07 04:59:21;;;;;;;2.72;1.65;;;;;;;19.10;56.40;96642.66;10474735;28;20028;-32
2023/06/07 05:04:21;;;;;;;1.60;1.30;;;;;;;19.04;56.11;96635.06;10489404;28;20562;-33
2023/06/07 05:09:30;;;;;;;1.63;1.50;;;;;;;19.13;56.28;96637.56;10475230;28;20490;-33
2023/06/07 05:14:30;;;;;;;1.42;1.30;;;;;;;19.42;55.89;96645.94;10467556;28;20033;-34
2023/06/07 05:19:31;;;;;;;2.28;1.58;;;;;;;19.52;55.49;96637.44;10474222;28;20418;-32
2023/06/07 05:24:32;;;;;;;1.30;1.20;;;;;;;19.35;56.00;96640.03;10472839;28;20029;-33
2023/06/07 05:29:32;;;;;;;1.98;1.55;;;;;;;19.26;56.04;96636.72;10471942;28;20514;-33
2023/06/07 05:34:33;;;;;;;3.00;1.63;;;;;;;19.19;56.14;96642.66;10473984;28;20128;-32
2023/06/07 05:39:33;;;;;;;2.20;1.73;;;;;;;19.15;56.29;96638.41;10472197;28;20494;-33
2023/06/07 05:44:34;;;;;;;2.00;1.50;;;;;;;19.14;56.24;96645.19;10473649;28;20036;-33
2023/06/07 05:49:35;;;;;;;3.05;1.38;;;;;;;19.13;56.65;96640.09;10472051;28;20098;-32
2023/06/07 05:54:47;;;;;;;3.45;1.65;;;;;;;19.13;56.23;96647.72;10472382;28;20032;-33
2023/06/07 05:59:47;;;;;;;1.77;1.55;;;;;;;19.12;56.23;96646.03;10491526;28;20111;-32
2023/06/07 06:04:53;;;;;;;1.83;1.60;;;;;;;19.12;56.20;96644.38;10490211;28;20037;-32
2023/06/07 06:09:54;;;;;;;5.80;1.92;;;;;;;19.34;56.57;96645.97;10491469;28;20035;-32
2023/06/07 06:14:55;;;;;;;1.77;1.60;;;;;;;19.55;55.37;96642.47;10487747;28;20039;-32
2023/06/07 06:19:55;;;;;;;1.63;1.52;;;;;;;19.40;55.88;96645.09;10491344;28;20039;-33
2023/06/07 06:24:57;;;;;;;2.10;1.83;;;;;;;19.28;56.06;96647.69;10499694;28;20028;-33
2023/06/07 06:29:57;;;;;;;3.28;1.70;;;;;;;19.26;56.14;96650.25;10496551;28;20374;-32
2023/06/07 06:34:57;;;;;;;1.70;1.60;;;;;;;19.24;55.87;96651.13;10507357;28;20127;-32
2023/06/07 06:39:58;;;;;;;2.67;1.90;;;;;;;19.23;55.60;96651.94;10497316;28;20047;-33
2023/06/07 06:45:00;;;;;;;1.50;1.40;;;;;;;19.27;55.98;96651.91;10498670;28;20889;-33
2023/06/07 06:50:00;;;;;;;1.40;1.30;;;;;;;19.29;55.76;96664.63;10496966;28;20409;-33
2023/06/07 06:55:01;;;;;;;1.80;1.70;;;;;;;19.24;55.94;96646.03;10491014;28;20043;-32
2023/06/07 07:00:11;;;;;;;1.30;1.00;;;;;;;19.31;56.12;96668.84;10497933;28;20793;-32
2023/06/07 07:05:11;;;;;;;2.25;1.60;;;;;;;19.42;57.33;96663.72;10495589;28;20090;-32
2023/06/07 07:10:12;;;;;;;1.33;1.23;;;;;;;19.59;56.71;96664.50;10497737;28;20037;-32
2023/06/07 07:15:12;;;;;;;1.73;1.52;;;;;;;19.62;56.26;96674.63;10495981;28;20063;-33
2023/06/07 07:20:13;;;;;;;1.17;1.07;;;;;;;19.50;56.46;96667.06;10497283;28;20039;-33
2023/06/07 07:25:15;;;;;;;1.65;1.38;;;;;;;19.44;56.61;96667.91;10494403;28;20032;-33
2023/06/07 07:30:16;;;;;;;1.35;1.23;;;;;;;19.38;56.43;96665.44;10495878;28;20064;-33
2023/06/07 07:35:16;;;;;;;1.20;1.10;;;;;;;19.41;56.51;96664.59;10493185;28;20521;-33
2023/06/07 07:40:17;;;;;;;1.30;1.20;;;;;;;19.36;56.72;96661.22;10496612;28;20056;-34
2023/06/07 07:45:17;;;;;;;1.45;1.35;;;;;;;19.38;56.48;96669.66;10492323;28;20041;-33
2023/06/07 07:50:17;;;;;;;1.23;1.13;;;;;;;19.32;56.67;96654.44;10494856;28;20407;-33
2023/06/07 07:55:18;;;;;;;1.60;1.30;;;;;;;19.38;56.56;96669.66;10496019;28;20275;-32
2023/06/07 08:00:18;;;;;;;1.47;1.30;;;;;;;19.39;57.14;96658.63;10494341;28;20035;-33
2023/06/07 08:05:19;;;;;;;1.60;1.30;;;;;;;19.58;57.05;96665.34;10503947;28;20176;-32
2023/06/07 08:10:19;;;;;;;1.38;1.10;;;;;;;19.70;56.59;96660.19;10493846;28;20426;-34
2023/06/07 08:15:20;;;;;;;1.13;1.03;;;;;;;19.54;57.11;96650.97;10495287;28;20128;-33
2023/06/07 08:20:20;;;;;;;1.03;0.93;;;;;;;19.48;57.11;96656.06;10493039;28;20414;-33
2023/06/07 08:25:21;;;;;;;1.60;1.20;;;;;;;19.46;56.90;96658.63;10493346;28;20618;-33
2023/06/07 08:30:21;;;;;;;1.42;1.20;;;;;;;19.46;57.01;96657.75;10494377;28;20040;-33
2023/06/07 08:35:22;;;;;;;1.57;1.10;;;;;;;19.44;56.89;96649.31;10486580;28;20029;-32
2023/06/07 08:40:24;;;;;;;1.40;1.07;;;;;;;19.43;56.80;96663.69;10494117;28;20772;-33
2023/06/07 08:45:24;;;;;;;1.15;1.05;;;;;;;19.43;56.89;96657.78;10489265;28;20063;-32
2023/06/07 08:50:25;;;;;;;1.08;0.98;;;;;;;19.43;56.71;96657.78;10494086;28;20458;-32
2023/06/07 08:55:26;;;;;;;0.98;0.88;;;;;;;19.43;56.88;96657.78;10489610;28;20067;-32
2023/06/07 09:00:28;;;;;;;1.20;1.10;;;;;;;19.54;58.10;96656.03;10493141;28;20066;-32
2023/06/07 09:05:29;;;;;;;0.98;0.85;;;;;;;19.69;57.42;96651.69;10492266;28;20083;-34
2023/06/07 09:10:30;;;;;;;1.33;1.10;;;;;;;19.61;57.47;96653.44;10493074;28;20075;-33
2023/06/07 09:15:30;;;;;;;1.10;1.00;;;;;;;19.54;57.36;96661.13;10491992;28;20021;-32
2023/06/07 09:20:33;;;;;;;1.02;0.93;;;;;;;19.49;57.40;96655.22;10488631;28;20038;-33
2023/06/07 09:25:35;;;;;;;1.38;0.90;;;;;;;19.48;57.35;96662.00;10492753;28;20127;-32
2023/06/07 09:30:52;;;;;;;1.33;0.90;;;;;;;19.45;57.32;96653.53;10488560;28;20028;-33
2023/06/07 09:36:11;;;;;;;1.38;1.00;;;;;;;19.47;57.42;96662.00;10491961;28;20090;-33
2023/06/07 09:41:12;;;;;;;0.90;0.80;;;;;;;19.46;57.32;96660.31;10484839;28;20032;-33
2023/06/07 09:46:14;;;;;;;1.27;1.17;;;;;;;19.45;57.11;96656.09;10490287;28;20029;-34
2023/06/07 09:51:15;;;;;;;1.00;0.90;;;;;;;19.45;57.18;96651.00;10491365;28;20314;-32
2023/06/07 09:56:17;;;;;;;1.10;1.00;;;;;;;19.53;58.73;96649.28;10490369;28;20021;-33
2023/06/07 10:01:33;;;;;;;1.00;0.90;;;;;;;19.69;57.84;96636.47;10491248;28;20388;-33
2023/06/07 10:06:37;;;;;;;0.90;0.80;;;;;;;19.68;57.17;96637.31;10489369;28;20029;-33
2023/06/07 10:11:43;;;;;;;0.80;0.80;;;;;;;19.58;57.66;96639.94;10483403;28;20383;-32
2023/06/07 10:16:52;;;;;;;0.90;0.85;;;;;;;19.50;57.60;96634.06;10491263;28;20031;-32
2023/06/07 10:21:55;;;;;;;1.40;1.08;;;;;;;19.50;57.53;96636.59;10489712;28;20044;-33
2023/06/07 10:27:14;;;;;;;1.00;0.90;;;;;;;19.50;57.83;96634.06;10491246;28;20037;-32
2023/06/07 10:32:33;;;;;;;0.80;0.80;;;;;;;19.48;57.30;96628.97;10484271;28;20043;-33
2023/06/07 10:37:36;;;;;;;0.90;0.90;;;;;;;19.48;57.50;96628.13;10483177;28;20495;-33
2023/06/07 10:42:41;;;;;;;0.82;0.82;;;;;;;19.49;57.58;96617.16;10490417;28;20029;-33
2023/06/07 10:47:42;;;;;;;0.80;0.80;;;;;;;19.49;57.69;96622.22;10489363;28;20062;-32
2023/06/07 10:52:56;;;;;;;1.88;1.00;;;;;;;19.55;60.02;96622.16;10489443;28;20032;-34
2023/06/07 10:58:00;;;;;;;0.80;0.80;;;;;;;19.70;57.96;96606.84;10490174;28;20387;-34
2023/06/07 11:03:10;;;;;;;0.77;0.77;;;;;;;19.72;57.75;96613.59;10489668;28;20033;-33
2023/06/07 11:08:37;;;;;;;1.10;1.00;;;;;;;19.59;58.10;96609.44;10497769;28;20043;-32
2023/06/07 11:13:43;;;;;;;1.10;1.00;;;;;;;19.55;57.79;96609.47;10490606;28;20426;-32
2023/06/07 11:19:00;;;;;;;0.98;0.90;;;;;;;19.50;57.67;96601.06;10492114;28;20028;-32
2023/06/07 11:24:11;;;;;;;0.88;0.70;;;;;;;19.50;57.57;96601.88;10497775;28;20411;-32
2023/06/07 11:29:13;;;;;;;1.00;0.90;;;;;;;19.50;57.80;96588.34;10485940;28;20059;-33
2023/06/07 11:34:14;;;;;;;1.10;0.93;;;;;;;19.50;57.75;96590.91;10495518;28;20032;-32
2023/06/07 11:39:19;;;;;;;1.08;0.98;;;;;;;19.48;57.54;96590.03;10496211;28;20035;-33
2023/06/07 11:44:20;;;;;;;0.95;0.95;;;;;;;19.48;57.65;96580.75;10492602;28;20407;-34
2023/06/07 11:49:23;;;;;;;1.15;1.00;;;;;;;19.52;60.51;96582.41;10496044;28;20047;-33
2023/06/07 11:54:25;;;;;;;0.70;0.70;;;;;;;19.71;58.46;96583.13;10488158;28;20055;-34
2023/06/07 11:59:26;;;;;;;0.82;0.70;;;;;;;19.76;57.38;96576.31;10495585;28;20541;-33
2023/06/07 12:04:26;;;;;;;0.60;0.60;;;;;;;19.62;58.29;96567.94;10491119;28;20032;-33
2023/06/07 12:09:29;;;;;;;0.90;0.82;;;;;;;19.52;57.95;96556.19;10495811;28;20832;-33
2023/06/07 12:14:30;;;;;;;1.00;0.90;;;;;;;19.52;57.92;96562.06;10492123;28;20036;-33
2023/06/07 12:19:31;;;;;;;1.15;1.05;;;;;;;19.52;57.61;96558.72;10493869;28;20482;-33
2023/06/07 12:24:36;;;;;;;0.95;0.85;;;;;;;19.50;57.69;96546.03;10494686;28;20044;-32
2023/06/07 12:29:36;;;;;;;0.85;0.82;;;;;;;19.50;57.56;96547.72;10493510;28;20056;-32
2023/06/07 12:34:42;;;;;;;0.80;0.80;;;;;;;19.50;57.63;96537.56;10494481;28;20116;-33
2023/06/07 12:39:42;;;;;;;0.77;0.77;;;;;;;19.50;57.84;96542.66;10486306;28;20123;-33
2023/06/07 12:44:43;;;;;;;1.00;0.90;;;;;;;19.52;59.18;96530.78;10489884;28;20132;-32
2023/06/07 12:49:44;;;;;;;0.70;0.70;;;;;;;19.69;58.44;96528.97;10489757;28;20375;-32
2023/06/07 12:54:44;;;;;;;0.60;0.60;;;;;;;19.78;57.77;96526.34;10498197;28;20098;-32
2023/06/07 12:59:44;;;;;;;1.23;0.80;;;;;;;19.66;58.33;96523.91;10493324;28;20044;-32
2023/06/07 13:04:45;;;;;;;1.17;0.73;;;;;;;19.59;58.29;96520.56;10490598;28;20037;-34
2023/06/07 13:09:45;;;;;;;1.00;0.90;;;;;;;19.56;58.36;96507.91;10488560;28;20044;-32
2023/06/07 13:14:46;;;;;;;0.80;0.80;;;;;;;19.55;58.17;96511.28;10488947;28;20094;-34
2023/06/07 13:19:46;;;;;;;0.80;0.80;;;;;;;19.54;57.94;96503.69;10490866;28;20119;-34
2023/06/07 13:24:47;;;;;;;0.70;0.70;;;;;;;19.52;57.80;96501.13;10492539;28;20410;-34
2023/06/07 13:29:47;;;;;;;1.10;0.90;;;;;;;19.52;58.11;96495.22;10483763;28;20024;-33
2023/06/07 13:34:47;;;;;;;1.07;0.97;;;;;;;19.51;57.86;96498.63;10492178;28;20275;-32
2023/06/07 13:39:48;;;;;;;0.93;0.80;;;;;;;19.50;57.72;96486.78;10488080;28;20111;-32
2023/06/07 13:44:48;;;;;;;1.00;0.90;;;;;;;19.64;58.51;96485.81;10488948;28;20786;-33
2023/06/07 13:49:48;;;;;;;0.63;0.63;;;;;;;19.78;57.96;96488.25;10488030;28;20486;-33
2023/06/07 13:54:49;;;;;;;0.70;0.70;;;;;;;19.67;58.33;96495.94;10488459;28;20294;-33
2023/06/07 13:59:50;;;;;;;0.60;0.60;;;;;;;19.59;58.30;96491.81;10499755;28;20036;-33
2023/06/07 14:04:50;;;;;;;0.60;0.60;;;;;;;19.55;58.11;96501.13;10487298;28;20040;-32
2023/06/07 14:09:50;;;;;;;1.13;1.03;;;;;;;19.53;58.09;96491.84;10491393;28;20123;-33
2023/06/07 14:14:51;;;;;;;0.68;0.60;;;;;;;19.52;57.96;96490.16;10489283;28;20099;-33
2023/06/07 14:19:52;;;;;;;0.70;0.70;;;;;;;19.51;58.10;96484.22;10490075;28;20099;-32
2023/06/07 14:24:52;;;;;;;0.80;0.80;;;;;;;19.50;57.74;96481.72;10491413;28;20433;-33
2023/06/07 14:29:52;;;;;;;0.60;0.60;;;;;;;19.50;57.88;96477.47;10487540;28;20495;-33
2023/06/07 14:34:53;;;;;;;0.93;0.90;;;;;;;19.50;57.91;96466.47;10490885;28;20025;-33
2023/06/07 14:39:53;;;;;;;1.13;0.93;;;;;;;19.64;58.84;96467.19;10505773;28;20024;-32
2023/06/07 14:44:55;;;;;;;0.80;0.70;;;;;;;19.79;57.96;96460.28;10499722;28;20033;-33
2023/06/07 14:49:55;;;;;;;0.63;0.57;;;;;;;19.72;58.35;96455.25;10497663;28;20107;-33
2023/06/07 14:54:55;;;;;;;0.80;0.77;;;;;;;19.62;58.40;96457.06;10494317;28;20487;-32
2023/06/07 14:59:56;;;;;;;0.53;0.53;;;;;;;19.56;58.23;96449.50;10495189;28;20033;-32
2023/06/07 15:04:56;;;;;;;0.67;0.53;;;;;;;19.55;57.92;96449.50;10496531;28;20620;-33
2023/06/07 15:09:56;;;;;;;2.50;0.90;;;;;;;19.52;57.93;96439.38;10497729;28;20039;-32
2023/06/07 15:14:57;;;;;;;0.70;0.70;;;;;;;19.52;58.61;96439.38;10490621;28;20036;-32
2023/06/07 15:19:57;;;;;;;1.03;0.83;;;;;;;19.53;57.99;96441.06;10497217;28;20450;-33
2023/06/07 15:24:57;;;;;;;1.80;1.20;;;;;;;19.52;57.82;96444.44;10490502;28;20490;-33
2023/06/07 15:30:00;;;;;;;1.30;1.20;;;;;;;19.52;57.81;96435.13;10494648;28;20044;-32
2023/06/07 15:35:00;;;;;;;1.42;0.90;;;;;;;19.61;60.17;96431.66;10494222;28;20399;-32
2023/06/07 15:40:01;;;;;;;3.80;0.60;;;;;;;19.77;58.26;96423.06;10490529;28;20029;-33
2023/06/07 15:45:01;;;;;;;1.10;0.70;;;;;;;19.78;58.17;96432.34;10496787;28;20033;-33
2023/06/07 15:50:02;;;;;;;0.80;0.73;;;;;;;19.67;58.63;96434.16;10492755;28;20044;-32
2023/06/07 15:55:02;;;;;;;1.00;0.90;;;;;;;19.62;58.54;96433.34;10496021;28;20306;-32
2023/06/07 16:00:03;;;;;;;2.72;1.33;;;;;;;19.59;58.49;96426.59;10492548;28;20029;-32
2023/06/07 16:05:12;;;;;;;1.10;1.00;;;;;;;19.55;58.46;96419.88;10495702;28;20521;-34
2023/06/07 16:10:12;;;;;;;1.07;0.90;;;;;;;19.57;58.27;96427.47;10494089;28;20028;-33
2023/06/07 16:15:13;;;;;;;3.43;1.10;;;;;;;19.57;58.20;96422.38;10494010;28;20035;-35
2023/06/07 16:20:13;;;;;;;1.10;1.00;;;;;;;19.56;58.37;96426.63;10495061;28;20037;-33
2023/06/07 16:25:16;;;;;;;1.20;1.10;;;;;;;19.56;58.23;96423.25;10489230;28;20673;-33
2023/06/07 16:30:16;;;;;;;1.00;1.00;;;;;;;19.58;60.97;96424.09;10494668;28;20098;-33
2023/06/07 16:35:16;;;;;;;0.70;0.57;;;;;;;19.77;58.59;96420.50;10489182;28;20058;-32
2023/06/07 16:40:17;;;;;;;1.07;0.83;;;;;;;19.83;58.00;96425.53;10487850;28;20638;-33
2023/06/07 16:45:18;;;;;;;0.63;0.63;;;;;;;19.68;58.77;96411.28;10494175;28;20462;-34
2023/06/07 16:50:18;;;;;;;0.60;0.60;;;;;;;19.63;58.77;96414.72;10491459;28;20223;-33
2023/06/07 16:55:18;;;;;;;1.40;0.80;;;;;;;19.59;58.47;96415.63;10494705;28;20033;-32
2023/06/07 17:00:19;;;;;;;1.33;1.23;;;;;;;19.58;58.43;96413.94;10492276;28;20036;-33
2023/06/07 17:05:19;;;;;;;0.70;0.70;;;;;;;19.57;58.26;96417.31;10490820;28;21508;-33
2023/06/07 17:10:21;;;;;;;1.00;0.90;;;;;;;19.56;58.35;96420.69;10492375;28;20083;-32
2023/06/07 17:15:21;;;;;;;1.05;0.95;;;;;;;19.56;58.15;96420.69;10494877;28;20056;-32
2023/06/07 17:20:21;;;;;;;1.20;1.10;;;;;;;19.55;58.02;96430.03;10492115;28;20138;-33
2023/06/07 17:25:23;;;;;;;4.63;1.50;;;;;;;19.55;58.43;96429.19;10492087;28;20036;-33
2023/06/07 17:30:23;;;;;;;0.70;0.60;;;;;;;19.72;59.05;96429.88;10490022;28;20044;-33
2023/06/07 17:35:23;;;;;;;0.70;0.60;;;;;;;19.85;58.05;96423.81;10492437;28;20036;-33
2023/06/07 17:40:24;;;;;;;0.60;0.57;;;;;;;19.72;58.66;96427.31;10487288;28;20036;-32
2023/06/07 17:45:25;;;;;;;0.53;0.53;;;;;;;19.65;58.74;96438.41;10491564;28;20305;-33
2023/06/07 17:50:26;;;;;;;1.20;1.00;;;;;;;19.61;59.00;96434.22;10485520;28;20043;-33
2023/06/07 17:55:26;;;;;;;1.00;0.90;;;;;;;19.58;58.43;96440.16;10491919;28;20035;-32
2023/06/07 18:00:26;;;;;;;1.07;0.87;;;;;;;19.58;58.22;96431.72;10474500;28;20043;-33
2023/06/07 18:05:27;;;;;;;1.20;1.10;;;;;;;19.56;58.28;96428.31;10483378;28;20509;-33
2023/06/07 18:10:27;;;;;;;1.07;0.77;;;;;;;19.56;58.06;96435.94;10483225;28;20107;-32
2023/06/07 18:15:28;;;;;;;1.17;1.07;;;;;;;19.55;58.21;96439.34;10487637;28;20043;-33
2023/06/07 18:20:28;;;;;;;1.65;1.13;;;;;;;19.55;58.09;96444.41;10491121;28;20036;-33
2023/06/07 18:25:29;;;;;;;0.70;0.70;;;;;;;19.67;59.98;96450.22;10490133;28;20052;-33
2023/06/07 18:30:30;;;;;;;0.57;0.50;;;;;;;19.83;58.38;96440.78;10490753;28;20058;-32
2023/06/07 18:35:31;;;;;;;0.47;0.47;;;;;;;19.75;58.61;96445.09;10483376;28;20024;-33
2023/06/07 18:40:32;;;;;;;0.97;0.60;;;;;;;19.64;58.58;96442.66;10499129;28;20037;-32
2023/06/07 18:45:32;;;;;;;0.82;0.70;;;;;;;19.61;58.52;96449.44;10489165;28;20033;-33
2023/06/07 18:50:33;;;;;;;0.53;0.53;;;;;;;19.58;58.36;96454.56;10489122;28;20043;-32
2023/06/07 18:55:33;;;;;;;0.83;0.83;;;;;;;19.57;58.25;96463.88;10491065;28;20115;-33
2023/06/07 19:00:33;;;;;;;0.47;0.47;;;;;;;19.55;58.16;96468.13;10483597;28;20517;-33
2023/06/07 19:05:34;;;;;;;0.80;0.80;;;;;;;19.54;58.26;96473.22;10490361;28;20067;-33
2023/06/07 19:10:34;;;;;;;0.85;0.85;;;;;;;19.55;58.12;96475.75;10482470;28;20032;-33
2023/06/07 19:15:34;;;;;;;0.83;0.80;;;;;;;19.53;58.08;96477.47;10489896;28;20032;-33
2023/06/07 19:20:35;;;;;;;0.70;0.70;;;;;;;19.64;59.35;96477.34;10482218;28;20047;-32
2023/06/07 19:25:37;;;;;;;0.77;0.75;;;;;;;19.81;58.48;96478.03;10504956;28;20446;-32
2023/06/07 19:30:37;;;;;;;0.47;0.47;;;;;;;19.78;58.01;96483.16;10496473;28;20028;-33
2023/06/07 19:35:38;;;;;;;1.10;0.60;;;;;;;19.65;58.60;96491.72;10494295;28;20162;-33
2023/06/07 19:40:38;;;;;;;0.70;0.53;;;;;;;19.60;58.35;96486.69;10496546;28;20028;-33
2023/06/07 19:45:38;;;;;;;0.73;0.73;;;;;;;19.57;58.31;96490.94;10494737;28;20055;-33
2023/06/07 19:50:39;;;;;;;0.70;0.60;;;;;;;19.55;58.22;96497.75;10496217;28;20037;-33
2023/06/07 19:55:39;;;;;;;1.00;0.90;;;;;;;19.54;57.91;96498.59;10487809;28;20036;-33
2023/06/07 20:00:41;;;;;;;0.40;0.40;;;;;;;19.53;58.02;96507.06;10495899;28;20341;-33
2023/06/07 20:05:42;;;;;;;0.60;0.60;;;;;;;19.53;57.75;96507.06;10493088;28;20119;-33
2023/06/07 20:10:42;;;;;;;1.13;0.80;;;;;;;19.54;57.90;96513.84;10489818;28;20471;-33
2023/06/07 20:15:44;;;;;;;0.50;0.50;;;;;;;19.57;60.02;96501.09;10495119;28;20056;-32
2023/06/07 20:20:44;;;;;;;0.60;0.57;;;;;;;19.77;58.20;96512.78;10487072;28;20304;-32
2023/06/07 20:25:45;;;;;;;0.60;0.60;;;;;;;19.76;58.06;96511.09;10492912;28;20039;-33
2023/06/07 20:30:45;;;;;;;0.68;0.68;;;;;;;19.65;58.32;96512.03;10494612;28;20548;-34
2023/06/07 20:35:45;;;;;;;0.40;0.40;;;;;;;19.61;58.03;96515.47;10492711;28;20036;-32
2023/06/07 20:40:46;;;;;;;0.60;0.60;;;;;;;19.56;58.23;96523.13;10494187;28;20044;-33
2023/06/07 20:45:46;;;;;;;0.97;0.80;;;;;;;19.56;58.07;96512.13;10489586;28;20028;-32
2023/06/07 20:50:46;;;;;;;0.43;0.43;;;;;;;19.54;58.13;96503.69;10492636;28;20270;-32
2023/06/07 20:55:49;;;;;;;0.80;0.70;;;;;;;19.52;57.91;96511.28;10487758;28;20278;-32
2023/06/07 21:00:51;;;;;;;0.55;0.55;;;;;;;19.53;58.04;96507.06;10485768;28;20045;-33
2023/06/07 21:05:52;;;;;;;0.70;0.70;;;;;;;19.53;57.98;96512.16;10493051;28;20059;-33
2023/06/07 21:10:53;;;;;;;0.67;0.67;;;;;;;19.58;60.06;96512.97;10492048;28;20029;-32
2023/06/07 21:15:53;;;;;;;0.60;0.60;;;;;;;19.77;58.44;96511.97;10492654;28;20028;-33
2023/06/07 21:20:54;;;;;;;0.93;0.73;;;;;;;19.85;57.63;96520.38;10491559;28;20040;-33
2023/06/07 21:25:54;;;;;;;0.50;0.50;;;;;;;19.68;58.28;96515.41;10491258;28;20090;-33
2023/06/07 21:30:55;;;;;;;0.68;0.68;;;;;;;19.62;58.08;96523.09;10492723;28;20036;-33
2023/06/07 21:35:57;;;;;;;0.80;0.67;;;;;;;19.59;58.02;96523.09;10489776;28;20506;-33
2023/06/07 21:40:57;;;;;;;1.20;0.60;;;;;;;19.57;58.08;96512.13;10492351;28;20073;-32
2023/06/07 21:45:57;;;;;;;0.60;0.60;;;;;;;19.55;57.72;96510.44;10487112;28;20119;-33
2023/06/07 21:50:58;;;;;;;0.60;0.60;;;;;;;19.55;57.82;96518.06;10488830;28;20510;-33
2023/06/07 21:55:58;;;;;;;0.60;0.60;;;;;;;19.53;57.91;96515.56;10486073;28;20032;-32
2023/06/07 22:00:58;;;;;;;0.90;0.70;;;;;;;19.52;57.88;96513.84;10490223;28;20042;-33
2023/06/07 22:06:00;;;;;;;0.60;0.60;;;;;;;19.53;58.03;96518.09;10491442;28;20036;-33
2023/06/07 22:11:01;;;;;;;0.60;0.50;;;;;;;19.71;58.33;96523.03;10490043;28;20322;-34
2023/06/07 22:16:01;;;;;;;0.73;0.60;;;;;;;19.85;57.89;96511.03;10491282;28;20495;-33
2023/06/07 22:21:03;;;;;;;0.55;0.55;;;;;;;19.72;58.20;96514.53;10484742;28;20474;-33
2023/06/07 22:26:03;;;;;;;0.70;0.70;;;;;;;19.63;57.83;96503.59;10491290;28;20043;-33
2023/06/07 22:31:05;;;;;;;0.43;0.43;;;;;;;19.58;58.05;96501.09;10489731;28;20047;-34
2023/06/07 22:36:07;;;;;;;0.50;0.50;;;;;;;19.58;57.83;96500.28;10470484;28;20024;-33
2023/06/07 22:41:07;;;;;;;0.85;0.80;;;;;;;19.56;57.75;96497.75;10490547;28;20043;-32
2023/06/07 22:46:07;;;;;;;0.70;0.70;;;;;;;19.56;57.61;96501.97;10489724;28;20044;-33
2023/06/07 22:51:09;;;;;;;0.83;0.83;;;;;;;19.53;57.47;96489.31;10490657;28;20282;-32
2023/06/07 22:56:10;;;;;;;0.70;0.70;;;;;;;19.54;57.60;96490.97;10488505;28;20028;-33
2023/06/07 23:01:13;;;;;;;0.80;0.80;;;;;;;19.53;57.67;96491.84;10492264;28;20209;-33
2023/06/07 23:06:13;;;;;;;0.60;0.60;;;;;;;19.67;59.04;96484.97;10497942;28;20082;-32
2023/06/07 23:11:15;;;;;;;0.43;0.43;;;;;;;19.83;58.19;96483.97;10490161;28;20085;-33
2023/06/07 23:16:16;;;;;;;0.73;0.50;;;;;;;19.75;58.27;96478.94;10497822;28;20031;-34
2023/06/07 23:21:17;;;;;;;0.50;0.50;;;;;;;19.63;58.22;96483.28;10491013;28;20140;-32